Time;durP1;ratioP1;P1;durP2;ratioP2;P2;SDS_P1;SDS_P2;PMS_P1;PMS_P2;Temp;Humidity;BMP_temperature;BMP_pressure;BME280_temperature;BME280_humidity;BME280_pressure;Samples;Min_cycle;Max_cycle;Signal;HPM_P1;HPM_P2
2023/03/03 00:01:36;;;;;;;33.50;19.43;;;;;;;;;;4996811;28;20791;-71
2023/03/03 00:04:02;;;;;;;34.40;19.93;;;;;;;;;;4996932;28;20420;-71
2023/03/03 00:06:29;;;;;;;31.93;19.43;;;;;;;;;;4996570;28;20476;-71
2023/03/03 00:08:55;;;;;;;36.63;18.73;;;;;;;;;;4996617;28;20468;-71
2023/03/03 00:11:21;;;;;;;36.67;19.30;;;;;;;;;;4996641;28;20431;-71
2023/03/03 00:13:48;;;;;;;36.63;20.80;;;;;;;;;;4996579;28;20508;-71
2023/03/03 00:16:25;;;;;;;53.13;24.50;;;;;;;;;;4997120;28;20426;-71
2023/03/03 00:18:52;;;;;;;44.63;21.50;;;;;;;;;;4996653;28;20421;-71
2023/03/03 00:21:31;;;;;;;36.27;19.87;;;;;;;;;;4996444;28;20933;-71
2023/03/03 00:24:16;;;;;;;33.50;19.47;;;;;;;;;;4996088;28;20466;-71
2023/03/03 00:26:47;;;;;;;31.57;19.33;;;;;;;;;;4996363;28;20435;-71
2023/03/03 00:29:24;;;;;;;37.03;19.60;;;;;;;;;;4996201;28;20446;-71
2023/03/03 00:31:50;;;;;;;33.10;19.80;;;;;;;;;;4996507;28;20401;-71
2023/03/03 00:34:16;;;;;;;30.60;18.37;;;;;;;;;;4996152;28;20435;-71
2023/03/03 00:36:42;;;;;;;31.80;18.07;;;;;;;;;;4996159;28;20457;-71
2023/03/03 00:39:14;;;;;;;31.00;17.90;;;;;;;;;;4996012;28;20924;-71
2023/03/03 00:41:40;;;;;;;38.27;19.70;;;;;;;;;;4996074;28;20529;-71
2023/03/03 00:44:18;;;;;;;37.00;18.47;;;;;;;;;;4995847;28;20559;-71
2023/03/03 00:46:44;;;;;;;38.53;20.00;;;;;;;;;;4996001;28;20448;-71
2023/03/03 00:49:17;;;;;;;31.50;19.00;;;;;;;;;;4996050;28;20421;-71
2023/03/03 00:51:43;;;;;;;34.30;17.83;;;;;;;;;;4995804;28;20410;-71
2023/03/03 00:54:09;;;;;;;30.03;17.70;;;;;;;;;;4995984;28;20429;-71
2023/03/03 00:56:35;;;;;;;37.40;17.40;;;;;;;;;;4995975;28;20425;-71
2023/03/03 00:59:01;;;;;;;28.07;17.43;;;;;;;;;;4994471;28;20467;-71
2023/03/03 01:01:27;;;;;;;34.70;18.73;;;;;;;;;;4996163;28;20568;-71
2023/03/03 01:03:53;;;;;;;32.47;18.80;;;;;;;;;;4995552;28;20417;-71
2023/03/03 01:06:19;;;;;;;32.47;18.20;;;;;;;;;;4995540;28;20563;-71
2023/03/03 01:08:45;;;;;;;47.47;20.90;;;;;;;;;;4996077;28;20410;-71
2023/03/03 01:11:15;;;;;;;39.30;19.37;;;;;;;;;;4996117;28;20929;-71
2023/03/03 01:13:41;;;;;;;46.63;20.57;;;;;;;;;;4996069;28;20430;-71
2023/03/03 01:16:07;;;;;;;32.30;17.13;;;;;;;;;;4996131;28;20940;-70
2023/03/03 01:18:34;;;;;;;33.80;17.10;;;;;;;;;;4995467;28;20413;-71
2023/03/03 01:21:00;;;;;;;35.70;16.70;;;;;;;;;;4995418;28;20422;-71
2023/03/03 01:23:27;;;;;;;26.13;17.10;;;;;;;;;;4995589;28;20429;-71
2023/03/03 01:25:53;;;;;;;25.07;16.40;;;;;;;;;;4995293;28;20477;-71
2023/03/03 01:28:18;;;;;;;32.60;17.03;;;;;;;;;;4993984;28;20429;-71
2023/03/03 01:30:44;;;;;;;28.57;17.63;;;;;;;;;;4995348;28;20433;-71
2023/03/03 01:33:11;;;;;;;26.23;15.87;;;;;;;;;;4995371;28;20488;-71
2023/03/03 01:35:39;;;;;;;29.53;17.90;;;;;;;;;;4994414;28;20449;-71
2023/03/03 01:38:05;;;;;;;25.20;15.87;;;;;;;;;;4995769;28;20453;-71
2023/03/03 01:40:31;;;;;;;31.90;14.33;;;;;;;;;;4995396;28;20993;-71
2023/03/03 01:42:59;;;;;;;33.50;16.57;;;;;;;;;;4994825;28;20480;-71
2023/03/03 01:45:27;;;;;;;29.20;15.33;;;;;;;;;;4995015;28;20573;-71
2023/03/03 01:48:11;;;;;;;26.13;15.87;;;;;;;;;;4994876;28;20424;-71
2023/03/03 01:50:37;;;;;;;31.70;15.10;;;;;;;;;;4994724;28;20421;-71
2023/03/03 01:53:04;;;;;;;22.10;14.50;;;;;;;;;;4995032;28;20417;-71
2023/03/03 01:55:33;;;;;;;29.63;16.40;;;;;;;;;;4994839;28;20449;-71
2023/03/03 01:58:02;;;;;;;19.67;14.43;;;;;;;;;;4994885;28;20917;-71
2023/03/03 02:00:29;;;;;;;25.00;15.37;;;;;;;;;;4993296;28;20847;-71
2023/03/03 02:02:55;;;;;;;30.33;15.17;;;;;;;;;;4994553;28;20516;-71
2023/03/03 02:05:21;;;;;;;23.87;14.97;;;;;;;;;;4994671;28;20508;-71
2023/03/03 02:07:48;;;;;;;23.60;14.33;;;;;;;;;;4994509;28;20424;-71
2023/03/03 02:10:17;;;;;;;32.70;16.60;;;;;;;;;;4994409;28;20804;-71
2023/03/03 02:12:51;;;;;;;23.43;13.23;;;;;;;;;;4994432;28;20504;-71
2023/03/03 02:15:19;;;;;;;25.83;16.87;;;;;;;;;;4994294;28;20785;-71
2023/03/03 02:17:45;;;;;;;24.20;14.73;;;;;;;;;;4994327;28;20456;-71
2023/03/03 02:20:31;;;;;;;25.17;15.47;;;;;;;;;;4994432;28;20449;-71
2023/03/03 02:23:07;;;;;;;27.40;14.93;;;;;;;;;;4973766;28;20421;-71
2023/03/03 02:25:36;;;;;;;23.00;15.40;;;;;;;;;;4994307;28;20522;-71
2023/03/03 02:28:02;;;;;;;26.50;13.70;;;;;;;;;;4994073;28;20417;-71
2023/03/03 02:30:28;;;;;;;23.47;14.40;;;;;;;;;;4994341;28;20483;-71
2023/03/03 02:32:54;;;;;;;26.93;15.40;;;;;;;;;;4994073;28;20905;-71
2023/03/03 02:35:36;;;;;;;22.57;13.10;;;;;;;;;;4992755;28;20441;-71
2023/03/03 02:38:11;;;;;;;22.50;14.00;;;;;;;;;;4994326;28;20412;-71
2023/03/03 02:40:39;;;;;;;27.13;14.10;;;;;;;;;;4994230;28;20783;-71
2023/03/03 02:43:06;;;;;;;26.70;16.00;;;;;;;;;;4993815;28;20520;-71
2023/03/03 02:45:33;;;;;;;22.67;15.17;;;;;;;;;;4993736;28;20992;-71
2023/03/03 02:47:59;;;;;;;26.70;14.53;;;;;;;;;;4994416;28;20513;-71
2023/03/03 02:50:26;;;;;;;23.27;14.30;;;;;;;;;;4993894;28;20453;-71
2023/03/03 02:52:52;;;;;;;27.80;14.63;;;;;;;;;;4994098;28;20452;-71
2023/03/03 02:55:18;;;;;;;25.83;15.07;;;;;;;;;;4993780;28;20835;-71
2023/03/03 02:57:44;;;;;;;27.40;15.47;;;;;;;;;;4993935;28;20428;-71
2023/03/03 03:00:10;;;;;;;23.77;15.90;;;;;;;;;;4992574;28;20444;-71
2023/03/03 03:02:36;;;;;;;31.03;15.27;;;;;;;;;;4993592;28;20908;-71
2023/03/03 03:05:02;;;;;;;23.90;15.30;;;;;;;;;;4993630;28;20472;-71
2023/03/03 03:07:28;;;;;;;21.43;13.90;;;;;;;;;;4993639;28;20905;-71
2023/03/03 03:09:55;;;;;;;29.80;14.97;;;;;;;;;;4993961;28;20424;-71
2023/03/03 03:12:20;;;;;;;27.80;14.40;;;;;;;;;;4993956;28;20429;-71
2023/03/03 03:14:47;;;;;;;20.67;12.83;;;;;;;;;;4993614;28;20417;-71
2023/03/03 03:17:13;;;;;;;25.70;14.70;;;;;;;;;;4993662;28;20428;-71
2023/03/03 03:19:38;;;;;;;26.63;14.70;;;;;;;;;;4993881;28;20417;-71
2023/03/03 03:22:04;;;;;;;28.60;15.70;;;;;;;;;;4993570;28;20429;-71
2023/03/03 03:24:30;;;;;;;34.03;16.60;;;;;;;;;;4993290;28;20412;-71
2023/03/03 03:26:56;;;;;;;27.03;15.43;;;;;;;;;;4993799;28;20921;-71
2023/03/03 03:29:22;;;;;;;23.43;14.90;;;;;;;;;;4993844;28;20423;-71
2023/03/03 03:31:48;;;;;;;27.37;15.50;;;;;;;;;;4993707;28;20929;-71
2023/03/03 03:34:14;;;;;;;59.03;27.83;;;;;;;;;;4993537;28;20820;-71
2023/03/03 03:36:41;;;;;;;85.57;36.40;;;;;;;;;;4993529;28;20833;-71
2023/03/03 03:39:07;;;;;;;88.83;34.77;;;;;;;;;;4993388;28;20432;-71
2023/03/03 03:41:33;;;;;;;78.23;35.90;;;;;;;;;;4993444;28;20421;-71
2023/03/03 03:43:59;;;;;;;44.40;22.40;;;;;;;;;;4993190;28;20563;-71
2023/03/03 03:46:25;;;;;;;43.40;21.10;;;;;;;;;;4993566;28;20480;-71
2023/03/03 03:48:51;;;;;;;32.57;19.30;;;;;;;;;;4993438;28;20507;-71
2023/03/03 03:51:17;;;;;;;38.33;19.93;;;;;;;;;;4992014;28;20440;-71
2023/03/03 03:53:44;;;;;;;46.60;23.83;;;;;;;;;;4993786;28;20916;-71
2023/03/03 03:56:10;;;;;;;31.37;18.03;;;;;;;;;;4993398;28;20420;-71
2023/03/03 03:58:36;;;;;;;34.53;19.03;;;;;;;;;;4994121;28;20769;-71
2023/03/03 04:01:06;;;;;;;27.87;16.93;;;;;;;;;;4997081;28;20418;-71
2023/03/03 04:03:32;;;;;;;30.10;16.43;;;;;;;;;;4996826;28;20927;-71
2023/03/03 04:05:58;;;;;;;34.60;17.43;;;;;;;;;;4996855;28;20559;-71
2023/03/03 04:08:24;;;;;;;26.33;15.30;;;;;;;;;;4996950;28;20411;-71
2023/03/03 04:10:50;;;;;;;24.47;16.10;;;;;;;;;;4996703;28;20460;-70
2023/03/03 04:13:16;;;;;;;29.47;16.37;;;;;;;;;;4996581;28;20405;-70
2023/03/03 04:15:42;;;;;;;24.03;15.27;;;;;;;;;;4997557;28;20482;-71
2023/03/03 04:18:08;;;;;;;28.70;16.70;;;;;;;;;;4995300;28;20461;-71
2023/03/03 04:20:34;;;;;;;20.87;13.87;;;;;;;;;;4996760;28;20425;-70
2023/03/03 04:23:00;;;;;;;33.43;16.40;;;;;;;;;;4996327;28;20922;-70
2023/03/03 04:25:26;;;;;;;26.63;15.33;;;;;;;;;;4996434;28;20811;-70
2023/03/03 04:27:53;;;;;;;24.53;14.63;;;;;;;;;;4996573;28;20417;-70
2023/03/03 04:30:19;;;;;;;28.10;16.00;;;;;;;;;;4996554;28;20436;-70
2023/03/03 04:32:45;;;;;;;30.53;15.60;;;;;;;;;;4996224;28;20932;-70
2023/03/03 04:35:11;;;;;;;29.00;16.50;;;;;;;;;;4996414;28;20429;-70
2023/03/03 04:37:37;;;;;;;29.47;15.77;;;;;;;;;;4996405;28;20821;-71
2023/03/03 04:40:04;;;;;;;28.63;15.20;;;;;;;;;;4996043;28;20983;-71
2023/03/03 04:42:30;;;;;;;42.97;15.60;;;;;;;;;;4995911;28;20552;-71
2023/03/03 04:44:56;;;;;;;29.37;15.13;;;;;;;;;;4995949;28;20623;-71
2023/03/03 04:47:22;;;;;;;29.70;16.87;;;;;;;;;;4996066;28;20428;-70
2023/03/03 04:49:48;;;;;;;26.60;15.40;;;;;;;;;;4996220;28;20878;-71
2023/03/03 04:52:14;;;;;;;23.77;15.93;;;;;;;;;;4996244;28;20425;-71
2023/03/03 04:54:40;;;;;;;28.67;15.93;;;;;;;;;;4996030;28;20444;-71
2023/03/03 04:57:08;;;;;;;23.90;14.97;;;;;;;;;;4994737;28;20416;-70
2023/03/03 04:59:34;;;;;;;25.33;15.40;;;;;;;;;;4996133;28;20425;-70
2023/03/03 05:02:00;;;;;;;21.43;15.10;;;;;;;;;;4995606;28;20432;-70
2023/03/03 05:04:26;;;;;;;23.43;15.30;;;;;;;;;;4996084;28;20413;-71
2023/03/03 05:06:52;;;;;;;30.23;16.60;;;;;;;;;;4996238;28;20897;-70
2023/03/03 05:09:18;;;;;;;22.90;15.23;;;;;;;;;;4995813;28;20440;-70
2023/03/03 05:11:43;;;;;;;25.53;15.93;;;;;;;;;;4994607;28;20432;-70
2023/03/03 05:14:09;;;;;;;26.20;15.50;;;;;;;;;;4995705;28;20433;-71
2023/03/03 05:16:35;;;;;;;24.37;15.20;;;;;;;;;;4995690;28;20628;-70
2023/03/03 05:19:01;;;;;;;27.23;15.57;;;;;;;;;;4995515;28;20788;-70
2023/03/03 05:21:27;;;;;;;26.40;15.30;;;;;;;;;;4995624;28;20468;-70
2023/03/03 05:23:53;;;;;;;31.00;16.80;;;;;;;;;;4995582;28;20430;-71
2023/03/03 05:26:19;;;;;;;31.23;17.17;;;;;;;;;;4995673;28;20476;-71
2023/03/03 05:28:45;;;;;;;30.07;17.23;;;;;;;;;;4995191;28;20924;-71
2023/03/03 05:31:11;;;;;;;28.33;17.00;;;;;;;;;;4994238;28;20417;-71
2023/03/03 05:33:37;;;;;;;29.40;16.23;;;;;;;;;;4995036;28;20414;-71
2023/03/03 05:36:04;;;;;;;38.03;17.60;;;;;;;;;;4993737;28;20868;-71
2023/03/03 05:38:30;;;;;;;33.20;18.03;;;;;;;;;;4995015;28;20448;-71
2023/03/03 05:40:56;;;;;;;28.13;18.47;;;;;;;;;;4995267;28;20944;-71
2023/03/03 05:43:22;;;;;;;29.60;18.53;;;;;;;;;;4993489;28;20484;-71
2023/03/03 05:45:48;;;;;;;31.57;17.47;;;;;;;;;;4994704;28;20542;-71
2023/03/03 05:48:13;;;;;;;34.17;18.50;;;;;;;;;;4995303;28;20422;-71
2023/03/03 05:50:39;;;;;;;34.00;17.37;;;;;;;;;;4994895;28;20487;-71
2023/03/03 05:53:05;;;;;;;39.90;21.70;;;;;;;;;;4994943;28;20748;-71
2023/03/03 05:55:31;;;;;;;38.13;21.07;;;;;;;;;;4994621;28;20429;-71
2023/03/03 05:57:57;;;;;;;33.07;18.03;;;;;;;;;;4994652;28;20417;-71
2023/03/03 06:00:23;;;;;;;31.10;17.80;;;;;;;;;;4994578;28;20421;-71
2023/03/03 06:02:49;;;;;;;30.80;16.80;;;;;;;;;;4994565;28;20421;-71
2023/03/03 06:05:15;;;;;;;26.13;17.37;;;;;;;;;;4994613;28;20567;-71
2023/03/03 06:07:41;;;;;;;32.07;17.73;;;;;;;;;;4994771;28;20420;-71
2023/03/03 06:10:08;;;;;;;28.57;18.17;;;;;;;;;;4994416;28;20929;-71
2023/03/03 06:12:34;;;;;;;34.77;19.97;;;;;;;;;;4994453;28;20421;-72
2023/03/03 06:15:00;;;;;;;30.80;17.53;;;;;;;;;;4993941;28;20432;-71
2023/03/03 06:17:26;;;;;;;32.13;18.73;;;;;;;;;;4993211;28;20421;-71
2023/03/03 06:19:52;;;;;;;31.53;17.50;;;;;;;;;;4994078;28;20417;-71
2023/03/03 06:22:18;;;;;;;37.63;17.47;;;;;;;;;;4994244;28;20413;-71
2023/03/03 06:24:44;;;;;;;28.27;16.27;;;;;;;;;;4992566;28;20433;-71
2023/03/03 06:27:10;;;;;;;23.20;15.77;;;;;;;;;;4994163;28;20445;-72
2023/03/03 06:29:36;;;;;;;24.90;16.00;;;;;;;;;;4993955;28;20417;-71
2023/03/03 06:32:02;;;;;;;22.40;15.10;;;;;;;;;;4994508;28;20457;-72
2023/03/03 06:34:29;;;;;;;27.17;16.17;;;;;;;;;;4993891;28;20453;-71
2023/03/03 06:36:55;;;;;;;29.30;17.40;;;;;;;;;;4994250;28;20417;-71
2023/03/03 06:39:22;;;;;;;33.87;17.47;;;;;;;;;;4993793;28;20413;-72
2023/03/03 06:41:48;;;;;;;47.63;25.63;;;;;;;;;;4994296;28;20425;-71
2023/03/03 06:44:14;;;;;;;44.03;22.73;;;;;;;;;;4993544;28;20460;-72
2023/03/03 06:46:40;;;;;;;44.13;22.47;;;;;;;;;;4994791;28;20484;-72
2023/03/03 06:49:06;;;;;;;44.30;22.20;;;;;;;;;;4993955;28;20850;-72
2023/03/03 06:51:38;;;;;;;43.43;22.00;;;;;;;;;;4994714;28;20925;-72
2023/03/03 06:54:12;;;;;;;38.07;20.10;;;;;;;;;;4992307;28;20537;-71
2023/03/03 06:56:38;;;;;;;33.83;20.60;;;;;;;;;;4993779;28;20413;-70
2023/03/03 06:59:15;;;;;;;34.17;19.30;;;;;;;;;;4994086;28;20792;-71
2023/03/03 07:01:41;;;;;;;29.20;17.50;;;;;;;;;;4993711;28;20428;-72
2023/03/03 07:04:16;;;;;;;29.43;17.77;;;;;;;;;;4993508;28;20512;-73
2023/03/03 07:06:42;;;;;;;38.80;18.30;;;;;;;;;;4993813;28;20828;-71
2023/03/03 07:09:14;;;;;;;38.17;21.23;;;;;;;;;;4993421;28;20823;-71
2023/03/03 07:11:40;;;;;;;37.93;21.93;;;;;;;;;;4993796;28;20414;-72
2023/03/03 07:14:13;;;;;;;42.93;21.77;;;;;;;;;;4993498;28;20420;-71
2023/03/03 07:16:39;;;;;;;43.17;22.00;;;;;;;;;;4993829;28;20429;-72
2023/03/03 07:19:14;;;;;;;38.30;21.83;;;;;;;;;;4994268;28;20421;-72
2023/03/03 07:21:41;;;;;;;35.23;22.47;;;;;;;;;;4993678;28;20467;-72
2023/03/03 07:24:26;;;;;;;35.30;20.77;;;;;;;;;;4993218;28;20424;-72
2023/03/03 07:26:54;;;;;;;31.80;18.53;;;;;;;;;;4993342;28;20477;-72
2023/03/03 07:29:27;;;;;;;37.30;21.43;;;;;;;;;;4992563;28;20858;-72
2023/03/03 07:31:55;;;;;;;27.67;18.30;;;;;;;;;;4993605;28;20425;-71
2023/03/03 07:34:21;;;;;;;41.80;21.00;;;;;;;;;;4994973;28;20948;-72
2023/03/03 07:36:47;;;;;;;34.83;20.47;;;;;;;;;;4998298;28;20429;-72
2023/03/03 07:39:31;;;;;;;37.73;20.97;;;;;;;;;;4997391;28;20413;-71
2023/03/03 07:42:23;;;;;;;35.43;20.80;;;;;;;;;;4996840;28;20809;-71
2023/03/03 07:44:50;;;;;;;38.27;19.30;;;;;;;;;;4995222;28;20543;-72
2023/03/03 07:47:25;;;;;;;43.30;21.57;;;;;;;;;;4996966;28;20828;-71
2023/03/03 07:49:51;;;;;;;32.87;18.43;;;;;;;;;;4997150;28;20505;-72
2023/03/03 07:52:25;;;;;;;38.33;22.23;;;;;;;;;;4996121;28;20544;-72
2023/03/03 07:54:52;;;;;;;40.17;21.70;;;;;;;;;;4995376;28;20512;-72
2023/03/03 07:57:20;;;;;;;28.87;18.97;;;;;;;;;;4995516;28;20433;-72
2023/03/03 07:59:54;;;;;;;34.33;19.50;;;;;;;;;;4996689;28;20504;-71
2023/03/03 08:02:23;;;;;;;37.83;18.40;;;;;;;;;;4996659;28;20984;-71
2023/03/03 08:04:51;;;;;;;32.30;17.00;;;;;;;;;;4996317;28;20417;-72
2023/03/03 08:07:18;;;;;;;34.23;20.10;;;;;;;;;;4996281;28;20421;-72
2023/03/03 08:09:46;;;;;;;52.03;18.50;;;;;;;;;;4996655;28;20421;-72
2023/03/03 08:12:27;;;;;;;31.60;18.77;;;;;;;;;;4996598;28;20948;-72
2023/03/03 08:14:53;;;;;;;33.43;16.03;;;;;;;;;;4996581;28;20489;-72
2023/03/03 08:17:30;;;;;;;32.33;17.43;;;;;;;;;;4996639;28;20417;-72
2023/03/03 08:19:56;;;;;;;29.67;17.17;;;;;;;;;;4996579;28;20893;-72
2023/03/03 08:22:29;;;;;;;27.67;16.00;;;;;;;;;;4996695;28;20449;-72
2023/03/03 08:24:55;;;;;;;31.30;18.80;;;;;;;;;;4996391;28;20476;-72
2023/03/03 08:27:21;;;;;;;28.57;18.23;;;;;;;;;;4995835;28;20421;-72
2023/03/03 08:29:48;;;;;;;27.77;17.40;;;;;;;;;;4996238;28;20933;-72
2023/03/03 08:32:14;;;;;;;31.00;17.70;;;;;;;;;;4996126;28;20449;-72
2023/03/03 08:34:40;;;;;;;31.03;19.20;;;;;;;;;;4996473;28;20416;-72
2023/03/03 08:37:06;;;;;;;30.23;17.53;;;;;;;;;;4996223;28;20421;-72
2023/03/03 08:39:32;;;;;;;33.53;20.50;;;;;;;;;;4994922;28;20486;-72
2023/03/03 08:41:58;;;;;;;29.57;16.57;;;;;;;;;;4995963;28;20556;-72
2023/03/03 08:44:24;;;;;;;29.10;17.93;;;;;;;;;;4996205;28;20455;-72
2023/03/03 08:46:50;;;;;;;52.60;22.53;;;;;;;;;;4995902;28;20487;-72
2023/03/03 08:49:16;;;;;;;30.17;16.83;;;;;;;;;;4995951;28;20786;-72
2023/03/03 08:51:42;;;;;;;35.63;18.30;;;;;;;;;;4995964;28;20417;-72
2023/03/03 08:54:10;;;;;;;29.00;18.10;;;;;;;;;;4995809;28;20417;-72
2023/03/03 08:56:36;;;;;;;33.30;20.50;;;;;;;;;;4995776;28;20440;-72
2023/03/03 08:59:02;;;;;;;31.57;19.20;;;;;;;;;;4995985;28;20917;-72
2023/03/03 09:01:27;;;;;;;36.80;20.67;;;;;;;;;;4995888;28;20897;-72
2023/03/03 09:03:53;;;;;;;33.30;18.60;;;;;;;;;;4994349;28;20520;-72
2023/03/03 09:06:20;;;;;;;36.73;18.57;;;;;;;;;;4995725;28;20488;-72
2023/03/03 09:08:46;;;;;;;36.90;19.17;;;;;;;;;;4995688;28;20454;-72
2023/03/03 09:11:19;;;;;;;37.60;20.97;;;;;;;;;;4994352;28;20421;-72
2023/03/03 09:13:45;;;;;;;33.73;20.47;;;;;;;;;;4995952;28;20460;-72
2023/03/03 09:16:14;;;;;;;41.67;22.47;;;;;;;;;;4994123;28;20809;-72
2023/03/03 09:18:41;;;;;;;35.53;20.43;;;;;;;;;;4995167;28;20928;-72
2023/03/03 09:21:26;;;;;;;31.10;16.93;;;;;;;;;;4996004;28;20425;-72
2023/03/03 09:23:56;;;;;;;40.87;21.17;;;;;;;;;;4995446;28;20416;-72
2023/03/03 09:26:41;;;;;;;41.00;20.40;;;;;;;;;;4995000;28;20473;-72
2023/03/03 09:29:15;;;;;;;35.47;20.57;;;;;;;;;;4995803;28;20796;-72
2023/03/03 09:31:47;;;;;;;35.73;21.40;;;;;;;;;;4995869;28;20459;-72
2023/03/03 09:34:20;;;;;;;34.80;19.70;;;;;;;;;;4995038;28;20421;-72
2023/03/03 09:36:46;;;;;;;45.03;21.13;;;;;;;;;;4995177;28;20462;-72
2023/03/03 09:39:17;;;;;;;35.67;20.63;;;;;;;;;;4994978;28;20841;-72
2023/03/03 09:42:02;;;;;;;35.17;19.90;;;;;;;;;;4995658;28;20420;-72
2023/03/03 09:44:27;;;;;;;43.30;22.60;;;;;;;;;;4993565;28;20925;-71
2023/03/03 09:47:21;;;;;;;47.27;22.97;;;;;;;;;;4993541;28;20484;-71
2023/03/03 09:49:55;;;;;;;71.10;36.80;;;;;;;;;;4994769;28;20460;-72
2023/03/03 09:52:27;;;;;;;32.63;20.60;;;;;;;;;;4994996;28;20893;-72
2023/03/03 09:54:53;;;;;;;66.77;34.33;;;;;;;;;;4993434;28;20521;-78
2023/03/03 09:57:24;;;;;;;41.50;23.70;;;;;;;;;;4994273;28;20508;-72
2023/03/03 10:00:03;;;;;;;50.80;28.23;;;;;;;;;;4994879;28;20414;-68
2023/03/03 10:02:34;;;;;;;38.37;22.80;;;;;;;;;;4994835;28;20410;-71
2023/03/03 10:05:19;;;;;;;47.47;22.10;;;;;;;;;;4994692;28;20783;-71
2023/03/03 10:08:00;;;;;;;40.70;20.70;;;;;;;;;;4994672;28;20424;-69
2023/03/03 10:10:37;;;;;;;40.43;19.70;;;;;;;;;;4993148;28;20855;-71
2023/03/03 10:13:20;;;;;;;35.53;21.67;;;;;;;;;;4994382;28;20449;-68
2023/03/03 10:15:53;;;;;;;38.03;23.20;;;;;;;;;;4994585;28;20836;-72
2023/03/03 10:18:32;;;;;;;35.37;21.20;;;;;;;;;;4993443;28;20925;-70
2023/03/03 10:21:01;;;;;;;35.43;20.33;;;;;;;;;;4994576;28;20425;-71
2023/03/03 10:23:45;;;;;;;40.77;23.63;;;;;;;;;;4994145;28;20439;-70
2023/03/03 10:26:23;;;;;;;40.70;23.17;;;;;;;;;;4994370;28;20555;-73
2023/03/03 10:29:07;;;;;;;46.90;24.03;;;;;;;;;;4994188;28;20460;-71
2023/03/03 10:31:44;;;;;;;33.93;19.93;;;;;;;;;;4994156;28;20923;-72
2023/03/03 10:37:17;;;;;;;48.63;23.90;;;;;;;;;;4994055;28;20400;-72
2023/03/03 10:40:04;;;;;;;45.40;26.97;;;;;;;;;;4994034;28;20424;-71
2023/03/03 10:42:36;;;;;;;44.33;23.80;;;;;;;;;;4993665;28;21007;-72
2023/03/03 10:45:05;;;;;;;44.63;24.37;;;;;;;;;;4994055;28;20533;-71
2023/03/03 10:47:39;;;;;;;49.30;27.40;;;;;;;;;;4994167;28;20944;-72
2023/03/03 10:50:11;;;;;;;50.70;28.53;;;;;;;;;;4994149;28;20904;-72
2023/03/03 10:53:01;;;;;;;36.27;21.40;;;;;;;;;;4992611;28;20524;-71
2023/03/03 10:55:36;;;;;;;44.67;22.80;;;;;;;;;;4994042;28;20401;-72
2023/03/03 10:58:10;;;;;;;42.03;24.43;;;;;;;;;;4993792;28;20415;-71
2023/03/03 11:00:39;;;;;;;48.00;26.33;;;;;;;;;;4993796;28;20405;-72
2023/03/03 11:03:11;;;;;;;36.03;20.80;;;;;;;;;;4993253;28;20405;-72
2023/03/03 11:05:43;;;;;;;46.63;25.57;;;;;;;;;;4992635;28;21003;-71
2023/03/03 11:08:09;;;;;;;50.43;22.07;;;;;;;;;;4993484;28;20519;-72
2023/03/03 11:10:53;;;;;;;50.90;28.40;;;;;;;;;;4997793;28;20428;-72
2023/03/03 11:13:28;;;;;;;48.80;28.03;;;;;;;;;;4998283;28;20421;-71
2023/03/03 11:15:54;;;;;;;45.90;25.37;;;;;;;;;;4997916;28;20416;-72
2023/03/03 11:18:33;;;;;;;45.83;24.47;;;;;;;;;;4997846;28;20421;-72
2023/03/03 11:21:01;;;;;;;45.97;27.67;;;;;;;;;;4997793;28;20417;-71
2023/03/03 11:23:34;;;;;;;50.47;27.23;;;;;;;;;;4997478;28;20440;-72
2023/03/03 11:26:19;;;;;;;60.30;27.50;;;;;;;;;;4997830;28;20554;-71
2023/03/03 11:28:50;;;;;;;50.50;29.25;;;;;;;;;;4997568;28;20411;-71
2023/03/03 11:31:19;;;;;;;42.73;26.40;;;;;;;;;;4997247;28;20182;-72
2023/03/03 11:34:05;;;;;;;47.83;28.27;;;;;;;;;;4997154;28;20419;-71
2023/03/03 11:36:39;;;;;;;47.23;25.30;;;;;;;;;;4997544;28;20420;-71
2023/03/03 11:39:08;;;;;;;49.57;31.50;;;;;;;;;;4997403;28;20417;-72
2023/03/03 11:41:52;;;;;;;51.67;27.10;;;;;;;;;;4996040;28;20507;-71
2023/03/03 11:44:24;;;;;;;43.70;25.30;;;;;;;;;;4996979;28;20779;-71
2023/03/03 11:46:57;;;;;;;42.60;26.13;;;;;;;;;;4997012;28;20476;-71
2023/03/03 11:49:28;;;;;;;50.47;27.00;;;;;;;;;;4997311;28;20413;-71
2023/03/03 11:52:06;;;;;;;40.90;22.97;;;;;;;;;;4996971;28;20981;-71
2023/03/03 11:54:37;;;;;;;49.33;23.90;;;;;;;;;;4997898;28;20523;-71
2023/03/03 11:57:22;;;;;;;44.40;24.13;;;;;;;;;;4996116;28;20508;-71
2023/03/03 12:00:08;;;;;;;40.87;24.03;;;;;;;;;;4996857;28;20417;-71
2023/03/03 12:02:42;;;;;;;42.63;21.80;;;;;;;;;;4996949;28;20416;-72
2023/03/03 12:05:13;;;;;;;45.43;25.47;;;;;;;;;;4996739;28;20452;-71
2023/03/03 12:07:54;;;;;;;45.30;25.67;;;;;;;;;;4997018;28;20453;-71
2023/03/03 12:10:26;;;;;;;42.90;24.07;;;;;;;;;;4997461;28;20802;-72
2023/03/03 12:13:00;;;;;;;49.47;25.37;;;;;;;;;;4996713;28;20434;-72
2023/03/03 12:15:36;;;;;;;41.53;23.67;;;;;;;;;;4997077;28;20411;-71
2023/03/03 12:18:07;;;;;;;39.87;23.70;;;;;;;;;;4996725;28;20512;-71
2023/03/03 12:20:33;;;;;;;42.67;22.70;;;;;;;;;;4997123;28;20452;-71
2023/03/03 12:23:08;;;;;;;43.93;25.00;;;;;;;;;;4996430;28;20429;-71
2023/03/03 12:25:43;;;;;;;42.70;24.33;;;;;;;;;;4996380;28;20547;-71
2023/03/03 12:28:23;;;;;;;42.90;23.70;;;;;;;;;;4996618;28;20421;-71
2023/03/03 12:31:04;;;;;;;47.43;26.20;;;;;;;;;;4996960;28;21063;-71
2023/03/03 12:33:33;;;;;;;34.07;22.33;;;;;;;;;;4996172;28;20413;-71
2023/03/03 12:36:18;;;;;;;41.70;23.30;;;;;;;;;;4994864;28;20937;-71
2023/03/03 12:39:13;;;;;;;39.43;24.10;;;;;;;;;;4996205;28;20420;-71
2023/03/03 12:41:39;;;;;;;36.83;21.77;;;;;;;;;;4960388;28;20423;-71
2023/03/03 12:47:19;;;;;;;39.63;24.10;;;;;;;;;;4996381;28;20432;-71
2023/03/03 12:50:04;;;;;;;42.03;23.90;;;;;;;;;;4996435;28;20402;-71
2023/03/03 12:52:38;;;;;;;43.13;27.53;;;;;;;;;;4995935;28;20424;-72
2023/03/03 12:55:04;;;;;;;44.10;22.40;;;;;;;;;;4996023;28;20896;-71
2023/03/03 12:57:30;;;;;;;45.10;26.03;;;;;;;;;;4995847;28;20413;-72
2023/03/03 13:00:10;;;;;;;41.23;24.17;;;;;;;;;;4995583;28;20436;-71
2023/03/03 13:02:43;;;;;;;42.57;23.07;;;;;;;;;;4995720;28;20429;-71
2023/03/03 13:05:09;;;;;;;41.30;24.03;;;;;;;;;;4994321;28;20468;-71
2023/03/03 13:07:41;;;;;;;45.80;23.80;;;;;;;;;;4995652;28;20615;-72
2023/03/03 13:10:26;;;;;;;42.63;23.83;;;;;;;;;;4996071;28;20416;-72
2023/03/03 13:12:58;;;;;;;40.80;25.83;;;;;;;;;;4995823;28;20409;-71
2023/03/03 13:15:26;;;;;;;42.07;19.17;;;;;;;;;;4995754;28;20889;-71
2023/03/03 13:17:55;;;;;;;42.43;22.97;;;;;;;;;;4995704;28;20426;-71
2023/03/03 13:20:24;;;;;;;44.90;26.33;;;;;;;;;;4995754;28;20785;-72
2023/03/03 13:23:09;;;;;;;44.10;24.60;;;;;;;;;;4995515;28;20901;-72
2023/03/03 13:25:49;;;;;;;44.83;23.33;;;;;;;;;;4995196;28;20456;-72
2023/03/03 13:28:33;;;;;;;44.93;27.43;;;;;;;;;;4994040;28;20976;-71
2023/03/03 13:31:25;;;;;;;43.40;24.27;;;;;;;;;;4994977;28;20433;-71
2023/03/03 13:33:53;;;;;;;48.73;24.23;;;;;;;;;;4993590;28;20441;-71
2023/03/03 13:36:22;;;;;;;46.17;27.07;;;;;;;;;;4995432;28;20894;-71
2023/03/03 13:38:51;;;;;;;42.73;24.20;;;;;;;;;;4993707;28;20440;-71
2023/03/03 13:41:20;;;;;;;45.80;24.73;;;;;;;;;;4995277;28;20418;-71
2023/03/03 13:43:51;;;;;;;50.13;25.83;;;;;;;;;;4994723;28;20480;-71
2023/03/03 13:46:21;;;;;;;40.57;22.30;;;;;;;;;;4995168;28;20460;-72
2023/03/03 13:49:02;;;;;;;44.17;26.63;;;;;;;;;;4995131;28;20420;-71
2023/03/03 13:51:40;;;;;;;41.00;27.10;;;;;;;;;;4995221;28;20425;-71
2023/03/03 13:54:09;;;;;;;41.47;24.50;;;;;;;;;;4994691;28;20471;-71
2023/03/03 13:56:35;;;;;;;58.77;26.90;;;;;;;;;;4994732;28;20429;-71
2023/03/03 13:59:03;;;;;;;53.80;28.60;;;;;;;;;;4994682;28;20845;-71
2023/03/03 14:01:36;;;;;;;52.57;27.70;;;;;;;;;;4994631;28;20500;-71
2023/03/03 14:04:05;;;;;;;58.27;26.57;;;;;;;;;;4995023;28;20789;-71
2023/03/03 14:06:31;;;;;;;45.50;27.75;;;;;;;;;;4994438;28;20456;-71
2023/03/03 14:09:20;;;;;;;45.90;28.20;;;;;;;;;;4994461;28;20643;-71
2023/03/03 14:12:06;;;;;;;55.80;28.30;;;;;;;;;;4995069;28;20436;-72
2023/03/03 14:14:32;;;;;;;48.73;26.10;;;;;;;;;;4994481;28;20790;-71
2023/03/03 14:17:03;;;;;;;47.93;24.27;;;;;;;;;;4994628;28;20833;-72
2023/03/03 14:19:59;;;;;;;45.40;26.80;;;;;;;;;;4993101;28;20417;-72
2023/03/03 14:22:42;;;;;;;49.13;26.57;;;;;;;;;;4985919;28;20529;-72
2023/03/03 14:25:10;;;;;;;64.13;25.40;;;;;;;;;;4994419;28;20547;-72
2023/03/03 14:27:39;;;;;;;45.73;25.60;;;;;;;;;;4994579;28;20433;-72
2023/03/03 14:30:23;;;;;;;48.10;27.43;;;;;;;;;;4994300;28;20422;-71
2023/03/03 14:32:58;;;;;;;36.77;22.10;;;;;;;;;;4994369;28;20417;-72
2023/03/03 14:35:25;;;;;;;28.57;17.47;;;;;;;;;;4993918;28;20444;-72
2023/03/03 14:37:51;;;;;;;38.47;23.17;;;;;;;;;;4993895;28;20421;-72
2023/03/03 14:40:21;;;;;;;37.57;24.00;;;;;;;;;;4993909;28;20421;-72